Time;durP1;ratioP1;P1;durP2;ratioP2;P2;SDS_P1;SDS_P2;PMS_P1;PMS_P2;Temp;Humidity;BMP_temperature;BMP_pressure;BME280_temperature;BME280_humidity;BME280_pressure;Samples;Min_cycle;Max_cycle;Signal;HPM_P1;HPM_P2
2022/06/06 15:53:56;;;;;;;3.75;1.67;;;;;;;21.12;41.00;100952.03;5119585;27;20425;-63
2022/06/06 15:56:49;;;;;;;4.10;1.55;;;;;;;21.09;41.20;100956.00;5088296;28;20499;-63
2022/06/06 15:59:48;;;;;;;10.77;2.33;;;;;;;21.17;41.57;100962.97;5094536;28;20088;-63
2022/06/06 16:02:30;;;;;;;35.45;17.23;;;;;;;21.05;40.50;100958.31;5080428;28;20110;-63
2022/06/06 16:05:00;;;;;;;;;;;;;;;21.11;40.55;100963.88;5097937;28;20044;-61
2022/06/06 16:10:02;;;;;;;95.63;55.08;;;;;;;21.02;40.68;100956.03;5055317;28;20920;-69
2022/06/06 16:13:09;;;;;;;48.67;26.25;;;;;;;20.79;40.85;100955.75;5032512;28;20049;-69
2022/06/06 16:15:41;;;;;;;23.20;12.70;;;;;;;20.67;41.09;100951.06;5050319;28;20136;-69
2022/06/06 16:18:25;;;;;;;22.70;11.23;;;;;;;20.59;41.70;100950.44;5049535;28;20111;-70
2022/06/06 16:20:59;;;;;;;19.10;9.27;;;;;;;20.65;41.80;100952.34;5050595;28;20037;-68
2022/06/06 16:23:32;;;;;;;18.75;8.50;;;;;;;20.69;41.91;100945.47;5066072;28;20041;-69
2022/06/06 16:26:05;;;;;;;21.33;9.35;;;;;;;20.76;42.20;100943.56;5049337;28;20111;-69
2022/06/06 16:28:42;;;;;;;10.48;4.05;;;;;;;20.66;42.07;100938.63;5050558;28;20529;-69
2022/06/06 16:31:34;;;;;;;14.45;4.75;;;;;;;20.67;42.31;100945.69;5050084;28;20479;-69
2022/06/06 16:34:24;;;;;;;23.55;5.80;;;;;;;20.65;42.41;100958.53;5051077;28;20119;-69
2022/06/06 16:36:59;;;;;;;10.15;4.25;;;;;;;20.48;42.66;100933.09;5050517;28;20095;-68
2022/06/06 16:39:54;;;;;;;10.95;3.90;;;;;;;20.49;42.58;100959.81;5047336;28;20052;-69
2022/06/06 16:51:50;;;;;;;11.73;2.83;;;;;;;20.24;43.31;100950.81;5111197;27;20839;-68
2022/06/06 16:54:37;;;;;;;9.02;2.67;;;;;;;20.08;43.31;100960.19;5109815;28;20043;-69
2022/06/06 16:57:19;;;;;;;7.75;2.80;;;;;;;20.18;43.23;100952.50;5110130;28;20039;-69
2022/06/06 17:00:16;;;;;;;8.23;3.40;;;;;;;20.19;43.20;100956.81;5092878;28;20496;-68
2022/06/06 17:02:52;;;;;;;10.02;3.33;;;;;;;20.24;43.44;100951.63;5109831;28;20040;-69
2022/06/06 17:09:06;;;;;;;13.35;3.28;;;;;;;20.29;43.72;100968.00;5109903;28;20477;-69
2022/06/06 17:12:13;;;;;;;6.60;2.30;;;;;;;19.97;43.77;100967.03;5110908;28;20040;-69
2022/06/06 17:14:40;;;;;;;5.07;2.17;;;;;;;19.92;43.76;100975.78;5109910;28;20036;-68
2022/06/06 17:17:18;;;;;;;9.20;2.72;;;;;;;20.01;44.08;100971.00;5110572;28;20089;-69
2022/06/06 17:19:48;;;;;;;8.48;2.60;;;;;;;20.06;44.18;100971.16;5110808;28;20397;-68
2022/06/06 17:22:30;;;;;;;8.35;2.30;;;;;;;19.94;44.30;100975.56;5076417;28;20040;-68
2022/06/06 17:25:01;;;;;;;15.13;2.72;;;;;;;20.07;44.36;100970.13;5109543;28;20078;-69
2022/06/06 17:27:56;;;;;;;6.13;1.92;;;;;;;19.96;44.65;100975.34;5110641;28;20044;-69
2022/06/06 17:31:02;;;;;;;6.55;2.35;;;;;;;19.92;44.72;100969.56;5092272;28;20047;-69
2022/06/06 17:33:48;;;;;;;7.35;2.22;;;;;;;19.89;44.96;100978.06;5109921;28;20175;-69
2022/06/06 17:36:34;;;;;;;8.27;2.30;;;;;;;19.94;45.20;100980.94;5109199;28;20098;-69
2022/06/06 17:39:41;;;;;;;6.18;2.40;;;;;;;19.86;45.34;100971.22;5110546;28;20135;-69
2022/06/06 17:45:04;;;;;;;7.22;2.38;;;;;;;19.84;45.64;100975.97;5111403;27;20384;-68
2022/06/06 17:48:06;;;;;;;11.38;2.90;;;;;;;19.94;45.62;100984.47;5109963;28;20081;-69
2022/06/06 17:51:14;;;;;;;8.68;2.53;;;;;;;19.81;45.85;100989.88;5111073;28;20036;-69
2022/06/06 17:54:01;;;;;;;8.73;2.60;;;;;;;19.90;45.77;100988.63;5093061;28;20115;-69
2022/06/06 17:56:48;;;;;;;6.03;2.20;;;;;;;19.86;45.97;100997.31;5093042;28;20404;-69
2022/06/06 17:59:39;;;;;;;9.57;2.60;;;;;;;19.90;45.97;100998.53;5110991;28;20043;-69
2022/06/06 18:02:46;;;;;;;7.18;2.63;;;;;;;19.85;45.94;101001.88;5111171;28;20043;-69
2022/06/06 18:11:25;;;;;;;8.98;2.28;;;;;;;19.61;46.21;101006.00;5131904;27;20439;-68
2022/06/06 18:16:52;;;;;;;5.85;2.20;;;;;;;19.81;46.23;101002.47;5070866;28;20364;-68
2022/06/06 18:19:26;;;;;;;9.65;2.40;;;;;;;19.77;46.25;100996.69;5054052;28;20494;-68
2022/06/06 18:21:55;;;;;;;9.88;2.22;;;;;;;19.70;46.52;101001.22;5069827;28;20049;-68
2022/06/06 18:24:42;;;;;;;6.32;2.20;;;;;;;19.67;46.63;101004.34;5070418;28;20431;-69
2022/06/06 18:27:24;;;;;;;6.50;2.22;;;;;;;19.64;46.53;101005.56;5069383;28;20036;-69
2022/06/06 18:29:55;;;;;;;6.00;2.00;;;;;;;19.54;46.77;101006.00;5070455;28;20434;-68
2022/06/06 18:32:28;;;;;;;;;;;;;;;19.65;46.63;101006.41;5070165;28;20048;-68
2022/06/06 18:35:01;;;;;;;5.43;2.13;;;;;;;19.55;46.87;101002.28;5070304;28;20365;-69
2022/06/06 18:37:33;;;;;;;10.07;2.20;;;;;;;19.67;46.48;101004.34;5069297;28;20444;-69
2022/06/06 18:40:21;;;;;;;6.80;2.10;;;;;;;19.67;46.34;101001.66;5070204;28;20045;-68
2022/06/06 18:42:49;;;;;;;4.47;2.00;;;;;;;19.66;46.42;101008.88;5055357;28;20114;-68
2022/06/06 18:45:23;;;;;;;8.63;2.20;;;;;;;19.72;46.46;101001.88;5068894;28;20441;-69
2022/06/06 18:47:54;;;;;;;5.63;1.90;;;;;;;19.65;46.52;101009.13;5069009;28;20044;-68
2022/06/06 18:50:38;;;;;;;8.57;2.25;;;;;;;19.66;46.42;101003.50;5070072;28;20127;-69
2022/06/06 18:53:17;;;;;;;8.18;2.40;;;;;;;19.66;46.74;101003.50;5069945;28;20037;-69
2022/06/06 18:55:47;;;;;;;8.15;2.20;;;;;;;19.70;46.63;101003.91;5069895;28;20375;-68
2022/06/06 18:58:40;;;;;;;5.32;1.95;;;;;;;19.72;46.81;100996.47;5068976;28;20037;-69
2022/06/06 19:01:17;;;;;;;7.00;2.15;;;;;;;19.69;46.93;101002.28;5068672;28;20114;-68
2022/06/06 19:03:52;;;;;;;7.20;2.20;;;;;;;19.77;46.64;100993.19;5069199;28;20402;-69
2022/06/06 19:06:29;;;;;;;5.85;2.20;;;;;;;19.62;46.69;101001.44;5052485;28;20501;-68
2022/06/06 19:09:00;;;;;;;7.68;2.20;;;;;;;19.59;47.17;100999.97;5068919;28;20056;-68
2022/06/06 19:11:31;;;;;;;6.90;2.10;;;;;;;19.55;47.05;100991.53;5052081;28;20037;-69
2022/06/06 19:14:12;;;;;;;6.65;2.10;;;;;;;19.67;47.00;100998.97;5069733;28;20045;-69
2022/06/06 19:16:43;;;;;;;8.90;2.15;;;;;;;19.64;47.02;101002.06;5069217;28;20063;-68
2022/06/06 19:19:22;;;;;;;7.22;2.13;;;;;;;19.62;47.22;101006.81;5052064;28;20455;-69
2022/06/06 19:21:51;;;;;;;6.07;1.90;;;;;;;19.63;46.93;101003.94;5069427;28;20482;-69
2022/06/06 19:24:22;;;;;;;7.10;2.13;;;;;;;19.60;47.38;101012.41;5051689;28;20044;-69
2022/06/06 19:27:00;;;;;;;7.10;2.20;;;;;;;19.48;47.56;101016.75;5062168;28;20074;-69
2022/06/06 19:29:30;;;;;;;3.85;1.70;;;;;;;19.50;47.51;101011.97;5055170;28;20049;-69
2022/06/06 19:34:39;;;;;;;7.15;2.20;;;;;;;19.56;47.34;101009.31;5111321;27;20730;-69
2022/06/06 19:42:31;;;;;;;6.03;2.05;;;;;;;19.53;47.65;101012.41;5111213;27;20373;-69
2022/06/06 19:45:01;;;;;;;9.30;2.10;;;;;;;19.56;47.70;101013.88;5111247;28;20044;-69
2022/06/06 19:47:33;;;;;;;5.43;2.10;;;;;;;19.56;47.38;101012.00;5109982;28;20135;-68
2022/06/06 19:50:10;;;;;;;6.22;2.03;;;;;;;19.50;47.58;101015.53;5097242;28;20471;-69
2022/06/06 19:52:37;;;;;;;4.72;2.10;;;;;;;19.51;47.68;101019.03;5110035;28;20040;-69
2022/06/06 19:55:13;;;;;;;7.07;2.00;;;;;;;19.53;47.64;101014.28;5093176;28;20047;-69
2022/06/06 19:57:45;;;;;;;6.90;2.10;;;;;;;19.60;47.67;101028.56;5109980;28;20497;-69
2022/06/06 20:00:16;;;;;;;6.20;1.90;;;;;;;19.52;47.87;101029.59;5092698;28;20052;-69
2022/06/06 20:02:50;;;;;;;6.63;1.98;;;;;;;19.43;48.19;101028.13;5109422;28;20457;-69
2022/06/06 20:05:25;;;;;;;8.30;2.50;;;;;;;19.54;47.96;101026.69;5108986;28;20047;-69
2022/06/06 20:07:52;;;;;;;5.43;2.13;;;;;;;19.63;48.07;101035.38;5093309;28;20043;-69
2022/06/06 20:10:25;;;;;;;7.38;2.35;;;;;;;19.66;48.19;101026.91;5109803;28;20105;-69
2022/06/06 20:12:56;;;;;;;6.82;2.08;;;;;;;19.66;48.44;101034.97;5092940;28;20048;-69
2022/06/06 20:15:25;;;;;;;;;;;;;;;19.69;48.19;101030.00;5111448;28;20458;-69
2022/06/06 20:17:54;;;;;;;7.53;2.40;;;;;;;19.71;48.51;101032.50;5111091;28;19920;-70
2022/06/06 20:20:27;;;;;;;5.05;2.10;;;;;;;19.71;48.40;101025.22;5110624;28;20047;-69
2022/06/06 20:23:02;;;;;;;8.40;2.40;;;;;;;19.67;48.77;101025.88;5110849;28;20040;-69
2022/06/06 20:25:35;;;;;;;5.13;2.05;;;;;;;19.68;48.76;101024.81;5109835;28;20050;-69
2022/06/06 20:33:45;;;;;;;8.88;2.50;;;;;;;19.61;49.41;101034.75;5110682;27;20351;-69
2022/06/06 20:39:05;;;;;;;6.35;2.38;;;;;;;19.57;49.70;101034.34;5111758;27;20355;-69
2022/06/06 20:41:36;;;;;;;10.93;2.45;;;;;;;19.55;50.00;101031.88;5094880;28;20097;-69
2022/06/06 20:44:22;;;;;;;8.63;2.30;;;;;;;19.60;49.87;101036.63;5111226;28;20401;-69
2022/06/06 20:46:59;;;;;;;10.57;2.25;;;;;;;19.63;50.04;101032.69;5060548;28;20094;-69
2022/06/06 20:49:31;;;;;;;9.45;2.60;;;;;;;19.63;49.80;101033.53;5093730;28;20142;-70
2022/06/06 20:52:00;;;;;;;6.93;2.42;;;;;;;19.72;49.75;101032.28;5111619;28;20043;-69
2022/06/06 20:54:31;;;;;;;11.93;3.13;;;;;;;19.73;49.56;101033.97;5093097;28;20065;-69
2022/06/06 20:57:27;;;;;;;10.07;2.33;;;;;;;19.74;49.85;101035.63;5109851;28;20047;-70
2022/06/06 20:59:54;;;;;;;8.40;2.60;;;;;;;19.75;49.62;101041.81;5110682;28;20636;-70
2022/06/06 21:02:21;;;;;;;9.27;2.30;;;;;;;19.77;49.63;101034.38;5092807;28;20065;-70
2022/06/06 21:04:49;;;;;;;7.50;2.55;;;;;;;19.80;50.04;101038.53;5108970;28;20035;-70
2022/06/06 21:07:22;;;;;;;9.10;2.63;;;;;;;19.78;50.52;101037.91;5076146;28;20040;-70
2022/06/06 21:09:49;;;;;;;6.75;2.60;;;;;;;19.71;50.54;101043.25;5110780;28;20394;-69
2022/06/06 21:12:16;;;;;;;8.93;2.58;;;;;;;19.71;50.59;101049.47;5110742;28;20085;-70
2022/06/06 21:14:44;;;;;;;8.68;2.92;;;;;;;19.68;50.96;101049.88;5110694;28;20505;-69
2022/06/06 21:17:12;;;;;;;6.00;2.58;;;;;;;19.61;51.14;101046.38;5110506;28;20105;-69
2022/06/06 21:19:39;;;;;;;8.25;3.13;;;;;;;19.60;51.29;101047.38;5092848;28;20040;-70
2022/06/06 21:22:05;;;;;;;6.75;2.67;;;;;;;19.51;51.73;101041.38;5092796;28;20048;-70
2022/06/06 21:24:38;;;;;;;9.52;2.70;;;;;;;19.46;51.86;101030.41;5109375;28;20051;-70
2022/06/06 21:27:05;;;;;;;7.55;2.65;;;;;;;19.45;52.23;101030.63;5110438;28;20118;-70
2022/06/06 21:29:32;;;;;;;8.05;2.83;;;;;;;19.50;52.17;101028.13;5110441;28;20044;-70
2022/06/06 21:31:59;;;;;;;7.47;2.65;;;;;;;19.42;52.84;101023.78;5109696;28;20045;-70
2022/06/06 21:34:26;;;;;;;9.95;3.05;;;;;;;19.35;53.05;101020.25;5109354;28;20047;-70
2022/06/06 21:36:53;;;;;;;8.63;2.90;;;;;;;19.30;53.27;101023.56;5110069;28;20126;-70
2022/06/06 21:39:19;;;;;;;7.97;3.20;;;;;;;19.28;53.39;101022.97;5108926;28;20558;-70
2022/06/06 21:41:46;;;;;;;7.65;2.75;;;;;;;19.23;53.42;101019.19;5109228;28;20093;-70
2022/06/06 21:44:13;;;;;;;7.22;3.10;;;;;;;19.13;53.91;101009.66;5108839;28;20093;-70
2022/06/06 21:46:39;;;;;;;7.40;3.15;;;;;;;19.08;54.05;101022.91;5110054;28;20054;-70
2022/06/06 21:49:06;;;;;;;11.05;2.92;;;;;;;19.05;54.09;101015.25;5101543;28;20044;-71
2022/06/06 21:51:37;;;;;;;7.45;2.90;;;;;;;19.08;54.20;101014.00;5096580;28;20101;-70
2022/06/06 21:54:09;;;;;;;8.43;2.72;;;;;;;19.08;54.23;101014.00;5078421;28;20056;-70
2022/06/06 21:56:40;;;;;;;7.22;2.85;;;;;;;19.10;54.09;101006.56;5096456;28;20048;-71
2022/06/06 21:59:10;;;;;;;7.95;3.05;;;;;;;19.10;54.30;101017.31;5095217;28;20047;-70
2022/06/06 22:01:37;;;;;;;9.02;3.10;;;;;;;19.08;54.59;101016.69;5095003;28;20400;-71
2022/06/06 22:04:04;;;;;;;8.43;2.88;;;;;;;19.03;54.46;101013.78;5095546;28;20074;-71
2022/06/06 22:06:32;;;;;;;6.65;2.95;;;;;;;18.98;54.70;101017.91;5095185;28;20047;-71
2022/06/06 22:09:00;;;;;;;7.43;2.50;;;;;;;19.02;54.75;101023.72;5096069;28;20498;-71
2022/06/06 22:11:27;;;;;;;5.93;2.88;;;;;;;18.96;54.94;101025.34;5094748;28;20478;-70
2022/06/06 22:13:54;;;;;;;8.80;2.78;;;;;;;18.97;54.68;101016.28;5094895;28;20135;-70
2022/06/06 22:16:23;;;;;;;8.65;3.00;;;;;;;19.03;54.98;101008.41;5061623;28;20051;-70
2022/06/06 22:18:51;;;;;;;7.90;2.78;;;;;;;19.04;54.87;101013.59;5095967;28;20551;-71
2022/06/06 22:21:19;;;;;;;8.18;3.30;;;;;;;19.02;55.07;101015.66;5078032;28;20062;-70
2022/06/06 22:23:49;;;;;;;8.73;2.70;;;;;;;19.01;55.04;101015.84;5095786;28;20050;-70
2022/06/06 22:26:18;;;;;;;7.57;3.17;;;;;;;18.99;55.28;101013.34;5094652;28;20044;-70
2022/06/06 22:28:44;;;;;;;6.80;2.70;;;;;;;18.98;55.12;101015.22;5094550;28;20047;-71
2022/06/06 22:31:13;;;;;;;7.88;2.90;;;;;;;18.99;55.08;101010.66;5076965;28;20405;-71
2022/06/06 22:33:40;;;;;;;9.73;2.88;;;;;;;18.93;55.07;101003.44;5077663;28;20400;-70
2022/06/06 22:36:08;;;;;;;8.70;3.60;;;;;;;18.92;55.64;101010.66;5044573;28;20047;-70
2022/06/06 22:38:35;;;;;;;7.75;2.50;;;;;;;18.94;55.42;101007.78;5094184;28;20044;-70
2022/06/06 22:41:02;;;;;;;7.25;3.30;;;;;;;18.95;55.41;101002.19;5095494;28;20039;-71
2022/06/06 22:43:29;;;;;;;6.75;3.13;;;;;;;18.90;55.40;101001.13;5094161;28;20109;-70
2022/06/06 22:45:56;;;;;;;8.13;3.08;;;;;;;18.86;55.66;100998.03;5095348;28;20044;-70
2022/06/06 22:48:23;;;;;;;7.72;3.00;;;;;;;18.88;55.73;101005.88;5095448;28;20039;-70
2022/06/06 22:50:52;;;;;;;5.60;2.80;;;;;;;18.93;55.96;101000.75;5093853;28;20051;-71
2022/06/06 22:53:20;;;;;;;8.10;3.15;;;;;;;18.85;55.93;100995.56;5095219;28;20044;-70
2022/06/06 22:55:47;;;;;;;6.25;3.00;;;;;;;18.86;55.79;100998.03;5095131;28;20471;-71
2022/06/06 22:58:14;;;;;;;9.15;3.15;;;;;;;18.82;55.74;100991.41;5077290;28;20126;-70
2022/06/06 23:00:43;;;;;;;8.60;3.25;;;;;;;18.78;55.68;100990.94;5093913;28;20051;-71
2022/06/06 23:03:10;;;;;;;8.52;3.58;;;;;;;18.82;56.09;100993.28;5077507;28;20090;-70
2022/06/06 23:05:37;;;;;;;9.57;3.22;;;;;;;18.79;55.66;100998.00;5092980;28;20486;-71
2022/06/06 23:08:04;;;;;;;7.25;3.13;;;;;;;18.76;56.23;100998.38;5093827;28;20139;-71
2022/06/06 23:10:31;;;;;;;7.30;3.28;;;;;;;18.73;56.16;100989.91;5093786;28;20044;-69
2022/06/06 23:12:58;;;;;;;8.25;3.33;;;;;;;18.77;56.01;100980.41;5093563;28;20378;-71
2022/06/06 23:15:25;;;;;;;8.05;3.20;;;;;;;18.79;56.13;100981.88;5093524;28;20451;-70
2022/06/06 23:17:52;;;;;;;8.68;3.30;;;;;;;18.73;56.29;100982.66;5094758;28;20036;-69
2022/06/06 23:20:19;;;;;;;8.57;3.05;;;;;;;18.75;56.40;100977.91;5094802;28;20430;-69
2022/06/06 23:22:45;;;;;;;9.23;3.60;;;;;;;18.83;56.25;100976.09;5076769;28;20043;-69
2022/06/06 23:25:12;;;;;;;7.28;3.38;;;;;;;18.78;56.30;100974.81;5094689;28;20054;-70
2022/06/06 23:27:39;;;;;;;7.82;3.35;;;;;;;18.74;56.38;100980.81;5093370;28;20040;-70
2022/06/06 23:30:07;;;;;;;9.35;3.42;;;;;;;18.71;56.62;100967.78;5092855;28;20039;-70
2022/06/06 23:32:34;;;;;;;7.18;3.38;;;;;;;18.72;56.53;100977.47;5093287;28;20054;-70
2022/06/06 23:35:01;;;;;;;7.53;3.20;;;;;;;18.71;56.86;100973.97;5093312;28;20040;-70
2022/06/06 23:37:35;;;;;;;7.57;3.10;;;;;;;18.71;57.06;100968.59;5092750;28;20060;-70
2022/06/06 23:40:06;;;;;;;9.48;3.53;;;;;;;18.71;56.85;100968.59;5093179;28;20044;-70
2022/06/06 23:42:35;;;;;;;10.10;3.30;;;;;;;18.71;56.88;100959.72;5093044;28;20051;-70
2022/06/06 23:47:58;;;;;;;9.68;3.83;;;;;;;18.71;56.98;100962.41;5093978;28;20040;-70
2022/06/06 23:55:50;;;;;;;10.65;3.67;;;;;;;18.65;57.37;100953.31;5111743;27;20705;-69
2022/06/06 23:58:20;;;;;;;7.75;3.88;;;;;;;18.66;57.39;100946.06;5093685;28;20032;-69
